sensor_id;sensor_type;location;lat;lon;timestamp;pressure;altitude;pressure_sealevel;temperature;humidity
77360;BME280;66426;51.454;7.266;2023-08-07T00:00:01;99606.13;;;12.49;nan
77360;BME280;66426;51.454;7.266;2023-08-07T00:01:02;99603.13;;;12.54;nan
77360;BME280;66426;51.454;7.266;2023-08-07T00:02:03;99603.91;;;12.56;nan
77360;BME280;66426;51.454;7.266;2023-08-07T00:03:04;99604.59;;;12.45;nan
77360;BME280;66426;51.454;7.266;2023-08-07T00:04:05;99604.81;;;12.42;nan
77360;BME280;66426;51.454;7.266;2023-08-07T00:05:06;99606.34;;;12.46;nan
77360;BME280;66426;51.454;7.266;2023-08-07T00:06:08;99599.66;;;12.51;nan
77360;BME280;66426;51.454;7.266;2023-08-07T00:07:09;99599.88;;;12.48;nan
77360;BME280;66426;51.454;7.266;2023-08-07T00:08:10;99608.63;;;12.52;nan
77360;BME280;66426;51.454;7.266;2023-08-07T00:09:10;99603.34;;;12.50;nan
77360;BME280;66426;51.454;7.266;2023-08-07T00:10:11;99599.03;;;12.61;nan
77360;BME280;66426;51.454;7.266;2023-08-07T00:11:12;99612.91;;;12.69;nan
77360;BME280;66426;51.454;7.266;2023-08-07T00:12:13;99607.25;;;12.59;nan
77360;BME280;66426;51.454;7.266;2023-08-07T00:13:13;99615.00;;;12.51;nan
77360;BME280;66426;51.454;7.266;2023-08-07T00:14:14;99606.44;;;12.44;nan
77360;BME280;66426;51.454;7.266;2023-08-07T00:15:15;99598.69;;;12.52;nan
77360;BME280;66426;51.454;7.266;2023-08-07T00:16:15;99607.22;;;12.46;nan
77360;BME280;66426;51.454;7.266;2023-08-07T00:17:16;99604.28;;;12.49;nan
77360;BME280;66426;51.454;7.266;2023-08-07T00:18:17;99609.09;;;12.59;nan
77360;BME280;66426;51.454;7.266;2023-08-07T00:19:18;99608.31;;;12.57;nan
77360;BME280;66426;51.454;7.266;2023-08-07T00:20:18;99596.19;;;12.49;nan
77360;BME280;66426;51.454;7.266;2023-08-07T00:21:20;99604.34;;;12.62;nan
77360;BME280;66426;51.454;7.266;2023-08-07T00:22:21;99597.81;;;12.52;nan
77360;BME280;66426;51.454;7.266;2023-08-07T00:23:22;99605.63;;;12.57;nan
77360;BME280;66426;51.454;7.266;2023-08-07T00:24:23;99603.22;;;12.52;nan
77360;BME280;66426;51.454;7.266;2023-08-07T00:25:23;99605.63;;;12.57;nan
77360;BME280;66426;51.454;7.266;2023-08-07T00:26:24;99598.34;;;12.44;nan
77360;BME280;66426;51.454;7.266;2023-08-07T00:27:25;99612.19;;;12.52;nan
77360;BME280;66426;51.454;7.266;2023-08-07T00:28:25;99599.75;;;12.50;nan
77360;BME280;66426;51.454;7.266;2023-08-07T00:29:26;99610.25;;;12.55;nan
77360;BME280;66426;51.454;7.266;2023-08-07T00:30:27;99598.25;;;12.46;nan
77360;BME280;66426;51.454;7.266;2023-08-07T00:31:28;99601.69;;;12.48;nan
77360;BME280;66426;51.454;7.266;2023-08-07T00:32:31;99599.19;;;12.45;nan
77360;BME280;66426;51.454;7.266;2023-08-07T00:33:32;99612.97;;;12.55;nan
77360;BME280;66426;51.454;7.266;2023-08-07T00:34:33;99608.53;;;12.54;nan
77360;BME280;66426;51.454;7.266;2023-08-07T00:35:34;99613.81;;;12.55;nan
77360;BME280;66426;51.454;7.266;2023-08-07T00:36:36;99617.50;;;12.54;nan
77360;BME280;66426;51.454;7.266;2023-08-07T00:37:36;99604.00;;;12.54;nan
77360;BME280;66426;51.454;7.266;2023-08-07T00:38:37;99610.16;;;12.56;nan
77360;BME280;66426;51.454;7.266;2023-08-07T00:39:38;99607.56;;;12.55;nan
77360;BME280;66426;51.454;7.266;2023-08-07T00:40:39;99623.00;;;12.52;nan
77360;BME280;66426;51.454;7.266;2023-08-07T00:41:40;99617.50;;;12.54;nan
77360;BME280;66426;51.454;7.266;2023-08-07T00:42:40;99620.28;;;12.52;nan
77360;BME280;66426;51.454;7.266;2023-08-07T00:43:41;99615.88;;;12.51;nan
77360;BME280;66426;51.454;7.266;2023-08-07T00:44:42;99613.16;;;12.51;nan
77360;BME280;66426;51.454;7.266;2023-08-07T00:45:43;99620.13;;;12.56;nan
77360;BME280;66426;51.454;7.266;2023-08-07T00:46:45;99621.94;;;12.55;nan
77360;BME280;66426;51.454;7.266;2023-08-07T00:47:46;99621.84;;;12.57;nan
77360;BME280;66426;51.454;7.266;2023-08-07T00:48:47;99620.00;;;12.57;nan
77360;BME280;66426;51.454;7.266;2023-08-07T00:49:48;99618.47;;;12.53;nan
77360;BME280;66426;51.454;7.266;2023-08-07T00:50:49;99623.41;;;12.46;nan
77360;BME280;66426;51.454;7.266;2023-08-07T00:51:53;99634.78;;;12.51;nan
77360;BME280;66426;51.454;7.266;2023-08-07T00:52:54;99627.19;;;12.44;nan
77360;BME280;66426;51.454;7.266;2023-08-07T00:53:55;99621.69;;;12.45;nan
77360;BME280;66426;51.454;7.266;2023-08-07T00:54:56;99627.31;;;12.55;nan
77360;BME280;66426;51.454;7.266;2023-08-07T00:55:56;99627.66;;;12.50;nan
77360;BME280;66426;51.454;7.266;2023-08-07T00:56:58;99625.41;;;12.57;nan
77360;BME280;66426;51.454;7.266;2023-08-07T00:58:03;99629.06;;;12.56;nan
77360;BME280;66426;51.454;7.266;2023-08-07T00:59:04;99630.72;;;12.59;nan
77360;BME280;66426;51.454;7.266;2023-08-07T01:00:05;99630.16;;;12.54;nan
77360;BME280;66426;51.454;7.266;2023-08-07T01:01:06;99628.97;;;12.58;nan
77360;BME280;66426;51.454;7.266;2023-08-07T01:02:08;99634.69;;;12.53;nan
77360;BME280;66426;51.454;7.266;2023-08-07T01:03:09;99635.03;;;12.61;nan
77360;BME280;66426;51.454;7.266;2023-08-07T01:04:11;99637.28;;;12.55;nan
77360;BME280;66426;51.454;7.266;2023-08-07T01:05:12;99633.75;;;12.67;nan
77360;BME280;66426;51.454;7.266;2023-08-07T01:06:13;99641.72;;;12.56;nan
77360;BME280;66426;51.454;7.266;2023-08-07T01:07:15;99637.59;;;12.50;nan
77360;BME280;66426;51.454;7.266;2023-08-07T01:08:16;99641.50;;;12.59;nan
77360;BME280;66426;51.454;7.266;2023-08-07T01:09:17;99640.53;;;12.60;nan
77360;BME280;66426;51.454;7.266;2023-08-07T01:10:18;99638.59;;;12.62;nan
77360;BME280;66426;51.454;7.266;2023-08-07T01:11:21;99647.84;;;12.45;nan
77360;BME280;66426;51.454;7.266;2023-08-07T01:12:23;99638.13;;;12.55;nan
77360;BME280;66426;51.454;7.266;2023-08-07T01:13:31;99654.00;;;12.47;nan
77360;BME280;66426;51.454;7.266;2023-08-07T01:14:36;99632.31;;;12.48;nan
77360;BME280;66426;51.454;7.266;2023-08-07T01:15:39;99642.69;;;12.55;nan
77360;BME280;66426;51.454;7.266;2023-08-07T01:16:41;99639.88;;;12.56;nan
77360;BME280;66426;51.454;7.266;2023-08-07T01:17:44;99659.97;;;12.52;nan
77360;BME280;66426;51.454;7.266;2023-08-07T01:18:46;99641.34;;;12.47;nan
77360;BME280;66426;51.454;7.266;2023-08-07T01:19:49;99648.28;;;12.51;nan
77360;BME280;66426;51.454;7.266;2023-08-07T01:20:50;99639.81;;;12.30;nan
77360;BME280;66426;51.454;7.266;2023-08-07T01:22:04;99641.88;;;12.40;nan
77360;BME280;66426;51.454;7.266;2023-08-07T01:23:06;99647.75;;;12.46;nan
77360;BME280;66426;51.454;7.266;2023-08-07T01:24:07;99646.13;;;12.44;nan
77360;BME280;66426;51.454;7.266;2023-08-07T01:25:07;99642.97;;;12.50;nan
77360;BME280;66426;51.454;7.266;2023-08-07T01:26:08;99631.41;;;12.48;nan
77360;BME280;66426;51.454;7.266;2023-08-07T01:27:12;99638.00;;;12.44;nan
77360;BME280;66426;51.454;7.266;2023-08-07T01:28:17;99641.66;;;12.43;nan
77360;BME280;66426;51.454;7.266;2023-08-07T01:29:22;99642.56;;;12.43;nan
77360;BME280;66426;51.454;7.266;2023-08-07T01:30:29;99648.69;;;12.45;nan
77360;BME280;66426;51.454;7.266;2023-08-07T01:31:30;99643.06;;;12.36;nan
77360;BME280;66426;51.454;7.266;2023-08-07T01:32:34;99650.53;;;12.45;nan
77360;BME280;66426;51.454;7.266;2023-08-07T01:33:38;99635.34;;;12.29;nan
77360;BME280;66426;51.454;7.266;2023-08-07T01:34:40;99649.63;;;12.32;nan
77360;BME280;66426;51.454;7.266;2023-08-07T01:35:43;99646.91;;;12.32;nan
77360;BME280;66426;51.454;7.266;2023-08-07T01:36:44;99640.44;;;12.34;nan
77360;BME280;66426;51.454;7.266;2023-08-07T01:37:47;99648.84;;;12.29;nan
77360;BME280;66426;51.454;7.266;2023-08-07T01:38:49;99645.00;;;12.34;nan
77360;BME280;66426;51.454;7.266;2023-08-07T01:39:50;99645.38;;;12.27;nan
77360;BME280;66426;51.454;7.266;2023-08-07T01:40:51;99644.22;;;12.32;nan
77360;BME280;66426;51.454;7.266;2023-08-07T01:41:53;99655.38;;;12.40;nan
77360;BME280;66426;51.454;7.266;2023-08-07T01:42:54;99646.25;;;12.28;nan
77360;BME280;66426;51.454;7.266;2023-08-07T01:43:55;99653.91;;;12.21;nan
77360;BME280;66426;51.454;7.266;2023-08-07T01:44:56;99657.16;;;12.26;nan
77360;BME280;66426;51.454;7.266;2023-08-07T01:45:56;99652.53;;;12.28;nan
77360;BME280;66426;51.454;7.266;2023-08-07T01:46:58;99657.03;;;12.28;nan
77360;BME280;66426;51.454;7.266;2023-08-07T01:47:59;99656.88;;;12.31;nan
77360;BME280;66426;51.454;7.266;2023-08-07T01:49:00;99663.72;;;12.22;nan
77360;BME280;66426;51.454;7.266;2023-08-07T01:50:00;99650.44;;;12.19;nan
77360;BME280;66426;51.454;7.266;2023-08-07T01:51:02;99651.47;;;12.31;nan
77360;BME280;66426;51.454;7.266;2023-08-07T01:52:03;99656.88;;;12.31;nan
77360;BME280;66426;51.454;7.266;2023-08-07T01:53:05;99661.00;;;12.37;nan
77360;BME280;66426;51.454;7.266;2023-08-07T01:54:06;99658.50;;;12.34;nan
77360;BME280;66426;51.454;7.266;2023-08-07T01:55:07;99664.75;;;12.34;nan
77360;BME280;66426;51.454;7.266;2023-08-07T01:56:07;99659.44;;;12.33;nan
77360;BME280;66426;51.454;7.266;2023-08-07T01:57:08;99660.53;;;12.30;nan
77360;BME280;66426;51.454;7.266;2023-08-07T01:58:09;99652.72;;;12.25;nan
77360;BME280;66426;51.454;7.266;2023-08-07T01:59:09;99658.78;;;12.29;nan
77360;BME280;66426;51.454;7.266;2023-08-07T02:00:10;99653.53;;;12.40;nan
77360;BME280;66426;51.454;7.266;2023-08-07T02:01:11;99663.41;;;12.41;nan
77360;BME280;66426;51.454;7.266;2023-08-07T02:02:12;99652.69;;;12.40;nan
77360;BME280;66426;51.454;7.266;2023-08-07T02:03:13;99658.19;;;12.38;nan
77360;BME280;66426;51.454;7.266;2023-08-07T02:04:13;99656.44;;;12.37;nan
77360;BME280;66426;51.454;7.266;2023-08-07T02:05:14;99653.88;;;12.36;nan
77360;BME280;66426;51.454;7.266;2023-08-07T02:06:15;99654.94;;;12.33;nan
77360;BME280;66426;51.454;7.266;2023-08-07T02:07:16;99655.53;;;12.24;nan
77360;BME280;66426;51.454;7.266;2023-08-07T02:08:18;99653.88;;;12.36;nan
77360;BME280;66426;51.454;7.266;2023-08-07T02:09:18;99655.59;;;12.37;nan
77360;BME280;66426;51.454;7.266;2023-08-07T02:10:19;99653.88;;;12.36;nan
77360;BME280;66426;51.454;7.266;2023-08-07T02:11:20;99659.06;;;12.39;nan
77360;BME280;66426;51.454;7.266;2023-08-07T02:12:20;99660.72;;;12.27;nan
77360;BME280;66426;51.454;7.266;2023-08-07T02:13:21;99655.88;;;12.32;nan
77360;BME280;66426;51.454;7.266;2023-08-07T02:14:22;99659.66;;;12.29;nan
77360;BME280;66426;51.454;7.266;2023-08-07T02:15:23;99664.97;;;12.31;nan
77360;BME280;66426;51.454;7.266;2023-08-07T02:16:23;99657.88;;;12.43;nan
77360;BME280;66426;51.454;7.266;2023-08-07T02:17:24;99667.38;;;12.36;nan
77360;BME280;66426;51.454;7.266;2023-08-07T02:18:25;99655.25;;;12.28;nan
77360;BME280;66426;51.454;7.266;2023-08-07T02:19:25;99662.91;;;12.35;nan
77360;BME280;66426;51.454;7.266;2023-08-07T02:20:26;99666.47;;;12.35;nan
77360;BME280;66426;51.454;7.266;2023-08-07T02:21:27;99663.47;;;12.40;nan
77360;BME280;66426;51.454;7.266;2023-08-07T02:22:28;99660.34;;;12.33;nan
77360;BME280;66426;51.454;7.266;2023-08-07T02:23:30;99665.22;;;12.41;nan
77360;BME280;66426;51.454;7.266;2023-08-07T02:24:30;99661.56;;;12.42;nan
77360;BME280;66426;51.454;7.266;2023-08-07T02:25:31;99664.50;;;12.51;nan
77360;BME280;66426;51.454;7.266;2023-08-07T02:26:32;99665.97;;;12.43;nan
77360;BME280;66426;51.454;7.266;2023-08-07T02:27:33;99673.59;;;12.50;nan
77360;BME280;66426;51.454;7.266;2023-08-07T02:28:33;99668.94;;;12.52;nan
77360;BME280;66426;51.454;7.266;2023-08-07T02:29:34;99671.19;;;12.46;nan
77360;BME280;66426;51.454;7.266;2023-08-07T02:30:35;99673.50;;;12.38;nan
77360;BME280;66426;51.454;7.266;2023-08-07T02:31:36;99668.31;;;12.35;nan
77360;BME280;66426;51.454;7.266;2023-08-07T02:32:36;99675.00;;;12.29;nan
77360;BME280;66426;51.454;7.266;2023-08-07T02:33:37;99667.66;;;12.31;nan
77360;BME280;66426;51.454;7.266;2023-08-07T02:34:38;99665.41;;;12.38;nan
77360;BME280;66426;51.454;7.266;2023-08-07T02:35:39;99672.44;;;12.40;nan
77360;BME280;66426;51.454;7.266;2023-08-07T02:36:39;99661.13;;;12.48;nan
77360;BME280;66426;51.454;7.266;2023-08-07T02:37:40;99668.13;;;12.38;nan
77360;BME280;66426;51.454;7.266;2023-08-07T02:38:42;99671.88;;;12.35;nan
77360;BME280;66426;51.454;7.266;2023-08-07T02:39:43;99666.94;;;12.42;nan
77360;BME280;66426;51.454;7.266;2023-08-07T02:40:44;99672.56;;;12.39;nan
77360;BME280;66426;51.454;7.266;2023-08-07T02:41:44;99683.03;;;12.30;nan
77360;BME280;66426;51.454;7.266;2023-08-07T02:42:45;99674.44;;;12.24;nan
77360;BME280;66426;51.454;7.266;2023-08-07T02:43:46;99665.66;;;12.20;nan
77360;BME280;66426;51.454;7.266;2023-08-07T02:44:46;99673.84;;;12.33;nan
77360;BME280;66426;51.454;7.266;2023-08-07T02:45:47;99674.50;;;12.37;nan
77360;BME280;66426;51.454;7.266;2023-08-07T02:46:48;99673.84;;;12.33;nan
77360;BME280;66426;51.454;7.266;2023-08-07T02:47:48;99673.72;;;12.35;nan
77360;BME280;66426;51.454;7.266;2023-08-07T02:48:49;99676.22;;;12.38;nan
77360;BME280;66426;51.454;7.266;2023-08-07T02:49:50;99668.13;;;12.38;nan
77360;BME280;66426;51.454;7.266;2023-08-07T02:50:51;99676.78;;;12.43;nan
77360;BME280;66426;51.454;7.266;2023-08-07T02:51:52;99668.69;;;12.43;nan
77360;BME280;66426;51.454;7.266;2023-08-07T02:52:52;99681.44;;;12.41;nan
77360;BME280;66426;51.454;7.266;2023-08-07T02:53:54;99674.06;;;12.43;nan
77360;BME280;66426;51.454;7.266;2023-08-07T02:54:55;99670.50;;;12.42;nan
77360;BME280;66426;51.454;7.266;2023-08-07T02:55:56;99669.34;;;12.46;nan
77360;BME280;66426;51.454;7.266;2023-08-07T02:56:56;99665.22;;;12.41;nan
77360;BME280;66426;51.454;7.266;2023-08-07T02:57:57;99671.59;;;12.40;nan
77360;BME280;66426;51.454;7.266;2023-08-07T02:58:58;99670.63;;;12.41;nan
77360;BME280;66426;51.454;7.266;2023-08-07T02:59:59;99677.84;;;12.40;nan
77360;BME280;66426;51.454;7.266;2023-08-07T03:01:02;99679.81;;;12.38;nan
77360;BME280;66426;51.454;7.266;2023-08-07T03:02:03;99668.88;;;12.40;nan
77360;BME280;66426;51.454;7.266;2023-08-07T03:03:04;99674.84;;;12.45;nan
77360;BME280;66426;51.454;7.266;2023-08-07T03:04:05;99669.19;;;12.35;nan
77360;BME280;66426;51.454;7.266;2023-08-07T03:05:06;99678.41;;;12.45;nan
77360;BME280;66426;51.454;7.266;2023-08-07T03:06:07;99670.63;;;12.41;nan
77360;BME280;66426;51.454;7.266;2023-08-07T03:07:08;99673.94;;;12.32;nan
77360;BME280;66426;51.454;7.266;2023-08-07T03:08:08;99669.19;;;12.35;nan
77360;BME280;66426;51.454;7.266;2023-08-07T03:09:10;99685.66;;;12.45;nan
77360;BME280;66426;51.454;7.266;2023-08-07T03:10:11;99670.63;;;12.41;nan
77360;BME280;66426;51.454;7.266;2023-08-07T03:11:12;99671.44;;;12.28;nan
77360;BME280;66426;51.454;7.266;2023-08-07T03:12:13;99673.50;;;12.38;nan
77360;BME280;66426;51.454;7.266;2023-08-07T03:13:13;99673.94;;;12.32;nan
77360;BME280;66426;51.454;7.266;2023-08-07T03:14:14;99676.53;;;12.33;nan
77360;BME280;66426;51.454;7.266;2023-08-07T03:15:15;99682.50;;;12.38;nan
77360;BME280;66426;51.454;7.266;2023-08-07T03:16:15;99675.56;;;12.34;nan
77360;BME280;66426;51.454;7.266;2023-08-07T03:17:16;99684.16;;;12.41;nan
77360;BME280;66426;51.454;7.266;2023-08-07T03:18:17;99672.44;;;12.40;nan
77360;BME280;66426;51.454;7.266;2023-08-07T03:19:18;99675.66;;;12.33;nan
77360;BME280;66426;51.454;7.266;2023-08-07T03:20:21;99670.53;;;12.28;nan
77360;BME280;66426;51.454;7.266;2023-08-07T03:21:22;99674.78;;;12.32;nan
77360;BME280;66426;51.454;7.266;2023-08-07T03:22:23;99670.06;;;12.36;nan
77360;BME280;66426;51.454;7.266;2023-08-07T03:23:24;99677.28;;;12.35;nan
77360;BME280;66426;51.454;7.266;2023-08-07T03:24:26;99676.22;;;12.38;nan
77360;BME280;66426;51.454;7.266;2023-08-07T03:25:26;99683.47;;;12.37;nan
77360;BME280;66426;51.454;7.266;2023-08-07T03:26:27;99673.94;;;12.32;nan
77360;BME280;66426;51.454;7.266;2023-08-07T03:27:28;99673.84;;;12.33;nan
77360;BME280;66426;51.454;7.266;2023-08-07T03:28:28;99683.03;;;12.30;nan
77360;BME280;66426;51.454;7.266;2023-08-07T03:29:29;99671.06;;;12.20;nan
77360;BME280;66426;51.454;7.266;2023-08-07T03:30:30;99666.13;;;12.27;nan
77360;BME280;66426;51.454;7.266;2023-08-07T03:31:30;99679.84;;;12.24;nan
77360;BME280;66426;51.454;7.266;2023-08-07T03:32:31;99675.00;;;12.29;nan
77360;BME280;66426;51.454;7.266;2023-08-07T03:33:32;99676.94;;;12.27;nan
77360;BME280;66426;51.454;7.266;2023-08-07T03:34:33;99686.31;;;12.21;nan
77360;BME280;66426;51.454;7.266;2023-08-07T03:35:33;99681.78;;;12.22;nan
77360;BME280;66426;51.454;7.266;2023-08-07T03:36:34;99682.13;;;12.30;nan
77360;BME280;66426;51.454;7.266;2023-08-07T03:37:35;99679.13;;;12.35;nan
77360;BME280;66426;51.454;7.266;2023-08-07T03:38:35;99689.16;;;12.33;nan
77360;BME280;66426;51.454;7.266;2023-08-07T03:39:38;99682.31;;;12.41;nan
77360;BME280;66426;51.454;7.266;2023-08-07T03:40:38;99689.84;;;12.36;nan
77360;BME280;66426;51.454;7.266;2023-08-07T03:41:39;99692.63;;;12.35;nan
77360;BME280;66426;51.454;7.266;2023-08-07T03:42:40;99686.66;;;12.29;nan
77360;BME280;66426;51.454;7.266;2023-08-07T03:43:40;99685.22;;;12.38;nan
77360;BME280;66426;51.454;7.266;2023-08-07T03:44:41;99690.50;;;12.40;nan
77360;BME280;66426;51.454;7.266;2023-08-07T03:45:42;99685.72;;;12.30;nan
77360;BME280;66426;51.454;7.266;2023-08-07T03:46:43;99686.47;;;12.33;nan
77360;BME280;66426;51.454;7.266;2023-08-07T03:47:43;99692.66;;;12.20;nan
77360;BME280;66426;51.454;7.266;2023-08-07T03:48:44;99694.22;;;12.24;nan
77360;BME280;66426;51.454;7.266;2023-08-07T03:49:45;99696.81;;;12.26;nan
77360;BME280;66426;51.454;7.266;2023-08-07T03:50:45;99690.66;;;12.24;nan
77360;BME280;66426;51.454;7.266;2023-08-07T03:51:46;99693.06;;;12.14;nan
77360;BME280;66426;51.454;7.266;2023-08-07T03:52:47;99704.34;;;12.21;nan
77360;BME280;66426;51.454;7.266;2023-08-07T03:53:48;99695.34;;;12.20;nan
77360;BME280;66426;51.454;7.266;2023-08-07T03:54:50;99698.34;;;12.30;nan
77360;BME280;66426;51.454;7.266;2023-08-07T03:55:51;99693.44;;;12.22;nan
77360;BME280;66426;51.454;7.266;2023-08-07T03:56:52;99691.22;;;12.29;nan
77360;BME280;66426;51.454;7.266;2023-08-07T03:57:53;99695.75;;;12.28;nan
77360;BME280;66426;51.454;7.266;2023-08-07T03:58:53;99695.94;;;12.25;nan
77360;BME280;66426;51.454;7.266;2023-08-07T03:59:54;99685.53;;;12.19;nan
77360;BME280;66426;51.454;7.266;2023-08-07T04:00:55;99686.31;;;12.21;nan
77360;BME280;66426;51.454;7.266;2023-08-07T04:01:56;99684.75;;;12.17;nan
77360;BME280;66426;51.454;7.266;2023-08-07T04:02:56;99688.16;;;12.21;nan
77360;BME280;66426;51.454;7.266;2023-08-07T04:03:57;99688.44;;;12.16;nan
77360;BME280;66426;51.454;7.266;2023-08-07T04:04:58;99690.66;;;12.24;nan
77360;BME280;66426;51.454;7.266;2023-08-07T04:05:58;99700.38;;;12.26;nan
77360;BME280;66426;51.454;7.266;2023-08-07T04:07:01;99686.91;;;12.12;nan
77360;BME280;66426;51.454;7.266;2023-08-07T04:08:01;99693.94;;;12.15;nan
77360;BME280;66426;51.454;7.266;2023-08-07T04:09:02;99697.00;;;12.23;nan
77360;BME280;66426;51.454;7.266;2023-08-07T04:10:05;99700.09;;;12.17;nan
77360;BME280;66426;51.454;7.266;2023-08-07T04:11:06;99689.31;;;12.17;nan
77360;BME280;66426;51.454;7.266;2023-08-07T04:12:07;99693.91;;;12.29;nan
77360;BME280;66426;51.454;7.266;2023-08-07T04:13:09;99704.50;;;12.32;nan
77360;BME280;66426;51.454;7.266;2023-08-07T04:14:10;99690.91;;;12.34;nan
77360;BME280;66426;51.454;7.266;2023-08-07T04:15:11;99686.75;;;12.28;nan
77360;BME280;66426;51.454;7.266;2023-08-07T04:16:12;99691.13;;;12.30;nan
77360;BME280;66426;51.454;7.266;2023-08-07T04:17:13;99692.75;;;12.33;nan
77360;BME280;66426;51.454;7.266;2023-08-07T04:18:13;99693.13;;;12.27;nan
77360;BME280;66426;51.454;7.266;2023-08-07T04:19:14;99696.91;;;12.24;nan
77360;BME280;66426;51.454;7.266;2023-08-07T04:20:15;99695.84;;;12.27;nan
77360;BME280;66426;51.454;7.266;2023-08-07T04:21:16;99698.03;;;12.35;nan
77360;BME280;66426;51.454;7.266;2023-08-07T04:22:16;99704.50;;;12.32;nan
77360;BME280;66426;51.454;7.266;2023-08-07T04:23:17;99692.06;;;12.29;nan
77360;BME280;66426;51.454;7.266;2023-08-07T04:24:18;99696.53;;;12.16;nan
77360;BME280;66426;51.454;7.266;2023-08-07T04:25:20;99704.84;;;12.13;nan
77360;BME280;66426;51.454;7.266;2023-08-07T04:26:20;99691.81;;;12.20;nan
77360;BME280;66426;51.454;7.266;2023-08-07T04:27:21;99699.41;;;12.27;nan
77360;BME280;66426;51.454;7.266;2023-08-07T04:28:22;99700.16;;;12.29;nan
77360;BME280;66426;51.454;7.266;2023-08-07T04:29:23;99694.22;;;12.24;nan
77360;BME280;66426;51.454;7.266;2023-08-07T04:30:24;99701.66;;;12.21;nan
77360;BME280;66426;51.454;7.266;2023-08-07T04:31:25;99702.81;;;12.17;nan
77360;BME280;66426;51.454;7.266;2023-08-07T04:32:25;99698.25;;;12.17;nan
77360;BME280;66426;51.454;7.266;2023-08-07T04:33:26;99700.75;;;12.20;nan
77360;BME280;66426;51.454;7.266;2023-08-07T04:34:27;99706.00;;;12.23;nan
77360;BME280;66426;51.454;7.266;2023-08-07T04:35:28;99700.66;;;12.22;nan
77360;BME280;66426;51.454;7.266;2023-08-07T04:36:28;99705.03;;;12.10;nan
77360;BME280;66426;51.454;7.266;2023-08-07T04:37:29;99699.81;;;12.21;nan
77360;BME280;66426;51.454;7.266;2023-08-07T04:38:30;99701.25;;;12.27;nan
77360;BME280;66426;51.454;7.266;2023-08-07T04:39:31;99707.41;;;12.29;nan
77360;BME280;66426;51.454;7.266;2023-08-07T04:40:34;99700.09;;;12.31;nan
77360;BME280;66426;51.454;7.266;2023-08-07T04:41:34;99704.81;;;12.27;nan
77360;BME280;66426;51.454;7.266;2023-08-07T04:42:35;99702.09;;;12.27;nan
77360;BME280;66426;51.454;7.266;2023-08-07T04:43:36;99702.66;;;12.33;nan
77360;BME280;66426;51.454;7.266;2023-08-07T04:44:36;99713.47;;;12.33;nan
77360;BME280;66426;51.454;7.266;2023-08-07T04:45:37;99706.00;;;12.23;nan
77360;BME280;66426;51.454;7.266;2023-08-07T04:46:39;99717.28;;;12.16;nan
77360;BME280;66426;51.454;7.266;2023-08-07T04:47:41;99701.75;;;12.19;nan
77360;BME280;66426;51.454;7.266;2023-08-07T04:48:42;99703.66;;;12.32;nan
77360;BME280;66426;51.454;7.266;2023-08-07T04:49:43;99712.25;;;12.24;nan
77360;BME280;66426;51.454;7.266;2023-08-07T04:50:43;99709.91;;;12.32;nan
77360;BME280;66426;51.454;7.266;2023-08-07T04:51:44;99709.94;;;12.18;nan
77360;BME280;66426;51.454;7.266;2023-08-07T04:52:45;99705.22;;;12.21;nan
77360;BME280;66426;51.454;7.266;2023-08-07T04:53:45;99706.84;;;12.24;nan
77360;BME280;66426;51.454;7.266;2023-08-07T04:54:46;99703.28;;;12.23;nan
77360;BME280;66426;51.454;7.266;2023-08-07T04:55:48;99722.06;;;12.25;nan
77360;BME280;66426;51.454;7.266;2023-08-07T04:56:49;99711.97;;;12.14;nan
77360;BME280;66426;51.454;7.266;2023-08-07T04:57:50;99718.81;;;12.20;nan
77360;BME280;66426;51.454;7.266;2023-08-07T04:58:54;99707.72;;;12.24;nan
77360;BME280;66426;51.454;7.266;2023-08-07T04:59:55;99705.78;;;12.26;nan
77360;BME280;66426;51.454;7.266;2023-08-07T05:00:56;99705.31;;;12.20;nan
77360;BME280;66426;51.454;7.266;2023-08-07T05:01:57;99703.28;;;12.23;nan
77360;BME280;66426;51.454;7.266;2023-08-07T05:02:57;99716.16;;;12.33;nan
77360;BME280;66426;51.454;7.266;2023-08-07T05:03:58;99717.06;;;12.33;nan
77360;BME280;66426;51.454;7.266;2023-08-07T05:04:59;99714.44;;;12.32;nan
77360;BME280;66426;51.454;7.266;2023-08-07T05:06:00;99706.94;;;12.22;nan
77360;BME280;66426;51.454;7.266;2023-08-07T05:07:01;99714.19;;;12.22;nan
77360;BME280;66426;51.454;7.266;2023-08-07T05:08:02;99703.66;;;12.32;nan
77360;BME280;66426;51.454;7.266;2023-08-07T05:09:03;99709.84;;;12.19;nan
77360;BME280;66426;51.454;7.266;2023-08-07T05:10:04;99713.69;;;12.15;nan
77360;BME280;66426;51.454;7.266;2023-08-07T05:11:06;99710.31;;;12.26;nan
77360;BME280;66426;51.454;7.266;2023-08-07T05:12:07;99718.50;;;12.24;nan
77360;BME280;66426;51.454;7.266;2023-08-07T05:13:08;99715.91;;;12.23;nan
77360;BME280;66426;51.454;7.266;2023-08-07T05:14:08;99717.38;;;12.14;nan
77360;BME280;66426;51.454;7.266;2023-08-07T05:15:09;99709.34;;;12.13;nan
77360;BME280;66426;51.454;7.266;2023-08-07T05:16:10;99714.25;;;12.20;nan
77360;BME280;66426;51.454;7.266;2023-08-07T05:17:11;99712.47;;;12.21;nan
77360;BME280;66426;51.454;7.266;2023-08-07T05:18:13;99710.25;;;12.13;nan
77360;BME280;66426;51.454;7.266;2023-08-07T05:19:14;99712.06;;;12.13;nan
77360;BME280;66426;51.454;7.266;2023-08-07T05:20:15;99704.06;;;12.11;nan
77360;BME280;66426;51.454;7.266;2023-08-07T05:21:15;99709.63;;;12.22;nan
77360;BME280;66426;51.454;7.266;2023-08-07T05:22:16;99710.88;;;12.31;nan
77360;BME280;66426;51.454;7.266;2023-08-07T05:23:17;99722.38;;;12.20;nan
77360;BME280;66426;51.454;7.266;2023-08-07T05:24:17;99716.88;;;12.22;nan
77360;BME280;66426;51.454;7.266;2023-08-07T05:25:18;99721.22;;;12.24;nan
77360;BME280;66426;51.454;7.266;2023-08-07T05:26:20;99717.09;;;12.19;nan
77360;BME280;66426;51.454;7.266;2023-08-07T05:27:21;99721.00;;;12.27;nan
77360;BME280;66426;51.454;7.266;2023-08-07T05:28:22;99721.50;;;12.34;nan
77360;BME280;66426;51.454;7.266;2023-08-07T05:29:23;99720.94;;;12.15;nan
77360;BME280;66426;51.454;7.266;2023-08-07T05:30:23;99731.94;;;12.26;nan
77360;BME280;66426;51.454;7.266;2023-08-07T05:31:24;99722.50;;;12.19;nan
77360;BME280;66426;51.454;7.266;2023-08-07T05:32:25;99723.75;;;12.13;nan